This is the latest recevied weather packets stored in our database for station/object KY0TEQ-13. If no packets are shown the sender has not sent any weather packets the latest 10 day(s).
| Time | Temp. | Humidity | Pressure | Rain* | Wind** | Luminosity | Snow |
|---|---|---|---|---|---|---|---|
| 1788699705 | 12.78° C | 47% | 1310 hPa | 0 mm | - | 11 W/m² | - |
| 1788699403 | 12.22° C | 46% | 1309.6 hPa | 0 mm | - | 8 W/m² | - |
| 1788699101 | 12.78° C | 46% | 1309.7 hPa | 0 mm | - | 5 W/m² | - |
| 1788698797 | 12.78° C | 45% | 1309.5 hPa | 0 mm | - | 3 W/m² | - |
| 1788698492 | 12.78° C | 46% | 1309.5 hPa | 0 mm | - | 2 W/m² | - |
| 1788698191 | 11.67° C | 48% | 1309.4 hPa | 0 mm | - | 1 W/m² | - |
| 1788697887 | 11.67° C | 49% | 1309.7 hPa | 0 mm | - | 0 W/m² | - |
| 1788697617 | 12.78° C | 46% | 1309.6 hPa | 0 mm | - | 0 W/m² | - |
| 1788697281 | 12.78° C | 46% | 1309.6 hPa | 0 mm | - | 0 W/m² | - |
| 1788696978 | 11.67° C | 48% | 1309.6 hPa | 0 mm | - | 0 W/m² | - |
| 1788696674 | 11.67° C | 48% | 1309.3 hPa | 0 mm | - | 0 W/m² | - |
| 1788696370 | 12.22° C | 50% | 1309.5 hPa | 0 mm | - | 0 W/m² | - |
| 1788696067 | 11.67° C | 48% | 1309.5 hPa | 0 mm | - | 0 W/m² | - |
| 1788695767 | 11.67° C | 49% | 1309.6 hPa | 0 mm | - | 0 W/m² | - |
| 1788695462 | 11.11° C | 51% | 1309.4 hPa | 0 mm | - | 0 W/m² | - |
| 1788695156 | 11.11° C | 53% | 1309.4 hPa | 0 mm | - | 0 W/m² | - |
| 1788694851 | 12.22° C | 50% | 1309.4 hPa | 0 mm | - | 0 W/m² | - |
| 1788694550 | 11.11° C | 52% | 1309.3 hPa | 0 mm | - | 0 W/m² | - |
| 1788694245 | 11.67° C | 50% | 1309.6 hPa | 0 mm | - | 0 W/m² | - |
| 1788693940 | 11.11° C | 53% | 1309.3 hPa | 0 mm | - | 0 W/m² | - |
| 1788693637 | 10.56° C | 55% | 1309.5 hPa | 0 mm | - | 0 W/m² | - |
| 1788693336 | 11.11° C | 54% | 1309.4 hPa | 0 mm | - | 0 W/m² | - |
| 1788693032 | 11.11° C | 52% | 1309.4 hPa | 0 mm | - | 0 W/m² | - |
| 1788692731 | 11.67° C | 52% | 1309.3 hPa | 0 mm | - | 0 W/m² | - |
| 1788692457 | 11.11° C | 53% | 1309.4 hPa | 0 mm | - | 0 W/m² | - |
* Rain latest hour (hover to see other rain measurements)
** Current wind speed in m/s (hover to see current wind gust speed)